Terminal Aerodrome Forecast
Issued by NWS Detroit/Pontiac, MI

Home | Current Version | Previous Version | Text Only | Print | Product List | Glossary On
Versions: 1 2 3 4 5 6 7 8 9 10 11 12
000
FTUS43 KDTX 270525
TAFFNT
TAF
KFNT 270525Z 2706/2806 36007KT P6SM BKN050
     FM270900 32005KT P6SM OVC020
     FM271800 35011KT P6SM BKN028=

USA.gov is the U.S. government's official web portal to all federal, state and local government web resources and services.